createdAt,value
2022-11-24T00:01:19.874Z,100207.72
2022-11-24T00:03:51.894Z,100206.00
2022-11-24T00:06:18.524Z,100208.47
2022-11-24T00:08:46.260Z,100200.66
2022-11-24T00:11:15.510Z,100196.25
2022-11-24T00:13:42.471Z,100200.50
2022-11-24T00:16:16.570Z,100201.34
2022-11-24T00:18:45.360Z,100225.47
2022-11-24T00:21:12.782Z,100236.81
2022-11-24T00:23:39.363Z,100245.44
2022-11-24T00:26:06.994Z,100235.91
2022-11-24T00:28:35.085Z,100237.72
2022-11-24T00:31:03.953Z,100231.88
2022-11-24T00:33:31.155Z,100241.31
2022-11-24T00:36:00.748Z,100242.22
2022-11-24T00:38:27.501Z,100240.59
2022-11-24T00:40:53.889Z,100245.78
2022-11-24T00:43:20.396Z,100242.34
2022-11-24T00:45:46.969Z,100238.00
2022-11-24T00:48:14.671Z,100239.00
2022-11-24T00:50:41.108Z,100240.03
2022-11-24T00:53:07.638Z,100246.97
2022-11-24T00:55:34.042Z,100250.41
2022-11-24T00:58:00.443Z,100246.22
2022-11-24T01:00:27.100Z,100255.78
2022-11-24T01:02:53.623Z,100260.91
2022-11-24T01:05:20.486Z,100272.25
2022-11-24T01:07:46.978Z,100274.91
2022-11-24T01:10:13.477Z,100274.84
2022-11-24T01:12:39.883Z,100268.78
2022-11-24T01:15:06.775Z,100280.00
2022-11-24T01:17:33.282Z,100277.41
2022-11-24T01:19:59.676Z,100272.31
2022-11-24T01:22:27.387Z,100284.41
2022-11-24T01:24:53.810Z,100283.66
2022-11-24T01:27:20.242Z,100284.53
2022-11-24T01:29:46.722Z,100284.59
2022-11-24T01:32:13.213Z,100282.16
2022-11-24T01:34:39.589Z,100277.91
2022-11-24T01:37:05.996Z,100281.44
2022-11-24T01:39:32.502Z,100282.44
2022-11-24T01:42:01.683Z,100283.25
2022-11-24T01:44:30.449Z,100281.72
2022-11-24T01:47:08.273Z,100283.47
2022-11-24T01:49:48.666Z,100290.34
2022-11-24T01:52:20.432Z,100293.81
2022-11-24T01:54:51.560Z,100293.00
2022-11-24T01:57:24.602Z,100292.06
2022-11-24T01:59:58.350Z,100296.28
2022-11-24T02:02:27.525Z,100305.72
2022-11-24T02:04:55.643Z,100305.66
2022-11-24T02:07:22.115Z,100302.84
2022-11-24T02:09:54.312Z,100308.75
2022-11-24T02:12:22.400Z,100308.59
2022-11-24T02:14:49.627Z,100304.34
2022-11-24T02:17:16.062Z,100313.72
2022-11-24T02:20:00.713Z,100304.91
2022-11-24T02:23:04.359Z,100311.69
2022-11-24T02:26:11.929Z,100319.28
2022-11-24T02:28:38.782Z,100320.97
2022-11-24T02:31:06.003Z,100328.59
2022-11-24T02:33:34.231Z,100322.47
2022-11-24T02:36:00.668Z,100336.19
2022-11-24T02:38:34.868Z,100327.28
2022-11-24T02:41:08.304Z,100331.47
2022-11-24T02:43:39.763Z,100341.75
2022-11-24T02:46:06.870Z,100335.53
2022-11-24T02:48:33.323Z,100329.38
2022-11-24T02:50:59.710Z,100346.66
2022-11-24T02:55:56.521Z,100341.47
2022-11-24T02:58:23.007Z,100344.06
2022-11-24T03:00:49.787Z,100340.66
2022-11-24T03:03:16.353Z,100354.47
2022-11-24T03:05:42.840Z,100347.59
2022-11-24T03:08:09.277Z,100341.47
2022-11-24T03:10:35.705Z,100346.72
2022-11-24T03:13:02.151Z,100339.03
2022-11-24T03:15:28.546Z,100339.94
2022-11-24T03:17:56.769Z,100338.28
2022-11-24T03:20:24.160Z,100346.94
2022-11-24T03:22:50.859Z,100349.47
2022-11-24T03:25:17.599Z,100349.41
2022-11-24T03:27:44.094Z,100349.25
2022-11-24T03:30:11.049Z,100349.19
2022-11-24T03:32:37.728Z,100350.91
2022-11-24T03:35:05.051Z,100350.91
2022-11-24T03:37:31.557Z,100346.59
2022-11-24T03:39:57.942Z,100351.84
2022-11-24T03:42:24.430Z,100347.59
2022-11-24T03:44:50.927Z,100352.00
2022-11-24T03:47:17.363Z,100346.81
2022-11-24T03:49:43.764Z,100345.06
2022-11-24T03:52:10.489Z,100347.66
2022-11-24T03:54:37.031Z,100354.59
2022-11-24T03:57:03.659Z,100362.25
2022-11-24T03:59:30.096Z,100361.38
2022-11-24T04:01:56.544Z,100362.25
2022-11-24T04:04:23.116Z,100364.94
2022-11-24T04:06:49.523Z,100367.53
2022-11-24T04:09:16.010Z,100370.13
2022-11-24T04:12:00.864Z,100380.47
2022-11-24T04:14:27.187Z,100389.00
2022-11-24T04:16:53.516Z,100392.44
2022-11-24T04:19:19.919Z,100396.69
2022-11-24T04:21:46.382Z,100391.50
2022-11-24T04:24:13.044Z,100401.97
2022-11-24T04:26:39.402Z,100405.28
2022-11-24T04:29:05.991Z,100404.38
2022-11-24T04:31:32.460Z,100410.41
2022-11-24T04:33:58.940Z,100406.91
2022-11-24T04:36:25.274Z,100412.94
2022-11-24T04:39:25.005Z,100411.94
2022-11-24T04:41:40.320Z,100422.19
2022-11-24T04:44:06.623Z,100424.78
2022-11-24T04:46:33.066Z,100433.38
2022-11-24T04:48:59.460Z,100439.38
2022-11-24T04:51:25.832Z,100432.44
2022-11-24T04:53:52.283Z,100441.22
2022-11-24T04:56:18.716Z,100449.91
2022-11-24T04:58:48.292Z,100459.22
2022-11-24T05:01:15.067Z,100457.50
2022-11-24T05:03:41.539Z,100463.47
2022-11-24T05:06:08.935Z,100460.81
2022-11-24T05:08:35.607Z,100470.25
2022-11-24T05:11:07.021Z,100481.31
2022-11-24T05:13:33.805Z,100473.63
2022-11-24T05:16:01.677Z,100481.31
2022-11-24T05:18:28.870Z,100495.16
2022-11-24T05:20:55.641Z,100494.34
2022-11-24T05:23:22.024Z,100495.31
2022-11-24T05:25:48.465Z,100497.13
2022-11-24T05:28:14.958Z,100511.91
2022-11-24T05:30:41.653Z,100517.22
2022-11-24T05:33:12.091Z,100525.06
2022-11-24T05:35:38.617Z,100524.28
2022-11-24T05:38:05.015Z,100528.75
2022-11-24T05:40:32.269Z,100529.72
2022-11-24T05:42:59.506Z,100536.72
2022-11-24T05:45:26.106Z,100536.06
2022-11-24T05:47:53.196Z,100549.13
2022-11-24T05:50:22.001Z,100546.69
2022-11-24T05:52:49.408Z,100564.88
2022-11-24T05:55:16.017Z,100566.63
2022-11-24T05:57:42.608Z,100571.91
2022-11-24T06:00:11.070Z,100574.59
2022-11-24T06:02:37.493Z,100574.69
2022-11-24T06:05:04.243Z,100579.09
2022-11-24T06:07:30.729Z,100586.06
2022-11-24T06:09:57.167Z,100591.38
2022-11-24T06:12:23.638Z,100593.13
2022-11-24T06:14:50.020Z,100588.03
2022-11-24T06:17:16.478Z,100601.78
2022-11-24T06:19:46.435Z,100607.88
2022-11-24T06:22:12.802Z,100609.56
2022-11-24T06:24:39.156Z,100614.72
2022-11-24T06:27:05.580Z,100616.44
2022-11-24T06:29:31.942Z,100619.91
2022-11-24T06:31:58.389Z,100621.59
2022-11-24T06:34:24.845Z,100624.19
2022-11-24T06:36:51.262Z,100634.53
2022-11-24T06:39:17.821Z,100639.63
2022-11-24T06:41:44.241Z,100638.81
2022-11-24T06:44:10.645Z,100645.69
2022-11-24T06:46:37.185Z,100646.56
2022-11-24T06:49:03.791Z,100659.56
2022-11-24T06:51:30.157Z,100660.59
2022-11-24T06:53:56.556Z,100670.16
2022-11-24T06:56:23.004Z,100669.38
2022-11-24T06:58:51.867Z,100672.94
2022-11-24T07:01:19.663Z,100686.00
2022-11-24T07:03:46.505Z,100686.09
2022-11-24T07:06:13.082Z,100687.06
2022-11-24T07:08:39.601Z,100692.28
2022-11-24T07:11:12.265Z,100697.47
2022-11-24T07:13:38.753Z,100702.72
2022-11-24T07:16:20.341Z,100701.75
2022-11-24T07:18:48.553Z,100712.09
2022-11-24T07:21:15.537Z,100711.19
2022-11-24T07:23:42.164Z,100711.19
2022-11-24T07:26:09.898Z,100710.28
2022-11-24T07:28:37.099Z,100720.59
2022-11-24T07:31:13.132Z,100715.28
2022-11-24T07:33:41.623Z,100717.03
2022-11-24T07:36:09.052Z,100728.19
2022-11-24T07:38:35.992Z,100731.59
2022-11-24T07:41:07.084Z,100741.06
2022-11-24T07:43:36.048Z,100754.75
2022-11-24T07:46:03.420Z,100764.22
2022-11-24T07:48:30.875Z,100778.78
2022-11-24T07:51:02.370Z,100776.16
2022-11-24T07:53:29.461Z,100775.25
2022-11-24T07:56:00.302Z,100781.19
2022-11-24T07:58:32.850Z,100787.25
2022-11-24T08:01:00.654Z,100791.50
2022-11-24T08:03:27.474Z,100797.59
2022-11-24T08:08:46.292Z,100812.03
2022-11-24T08:11:15.257Z,100817.94
2022-11-24T08:13:42.512Z,100826.44
2022-11-24T08:16:11.620Z,100826.38
2022-11-24T08:18:38.932Z,100829.84
2022-11-24T08:21:06.467Z,100828.03
2022-11-24T08:23:33.103Z,100821.09
2022-11-24T08:26:05.203Z,100815.84
2022-11-24T08:28:32.620Z,100823.59
2022-11-24T08:31:07.480Z,100821.03
2022-11-24T08:33:33.888Z,100826.28
2022-11-24T08:36:09.472Z,100831.44
2022-11-24T08:38:36.372Z,100840.09
2022-11-24T08:41:05.253Z,100852.09
2022-11-24T08:43:31.934Z,100855.41
2022-11-24T08:46:05.043Z,100855.19
2022-11-24T08:48:32.157Z,100851.59
2022-11-24T08:50:59.719Z,100854.13
2022-11-24T08:53:26.219Z,100856.72
2022-11-24T08:55:52.786Z,100862.78
2022-11-24T08:58:19.262Z,100862.91
2022-11-24T09:00:45.987Z,100863.91
2022-11-24T09:03:12.404Z,100872.53
2022-11-24T09:05:54.474Z,100873.25
2022-11-24T09:08:20.925Z,100870.44
2022-11-24T09:10:47.473Z,100871.94
2022-11-24T09:13:13.969Z,100882.16
2022-11-24T09:15:40.746Z,100884.56
2022-11-24T09:18:07.159Z,100892.03
2022-11-24T09:20:33.634Z,100891.19
2022-11-24T09:23:00.048Z,100887.44
2022-11-24T09:25:26.483Z,100895.91
2022-11-24T09:27:54.398Z,100893.78
2022-11-24T09:30:20.991Z,100887.34
2022-11-24T09:32:47.510Z,100902.53
2022-11-24T09:35:13.961Z,100896.97
2022-11-24T09:37:40.434Z,100907.88
2022-11-24T09:40:07.831Z,100904.75
2022-11-24T09:42:53.282Z,100922.34
2022-11-24T09:46:04.425Z,100917.75
2022-11-24T09:48:36.070Z,100915.50
2022-11-24T09:51:04.147Z,100923.03
2022-11-24T09:53:42.035Z,100933.78
2022-11-24T09:56:22.134Z,100934.28
2022-11-24T09:59:11.564Z,100941.78
2022-11-24T10:01:42.041Z,100943.44
2022-11-24T10:04:20.857Z,100946.69
2022-11-24T10:06:57.822Z,100947.66
2022-11-24T10:09:42.629Z,100955.53
2022-11-24T10:12:29.330Z,100947.84
2022-11-24T10:15:19.165Z,100956.41
2022-11-24T10:18:00.265Z,100960.72
2022-11-24T10:20:53.464Z,100967.66
2022-11-24T10:23:41.875Z,100966.75
2022-11-24T10:26:18.421Z,100970.13
2022-11-24T10:28:55.982Z,100969.88
2022-11-24T10:31:24.487Z,100976.47
2022-11-24T10:33:51.318Z,100984.72
2022-11-24T10:36:29.926Z,100983.41
2022-11-24T10:39:10.522Z,100997.81
2022-11-24T10:41:45.662Z,100993.03
2022-11-24T10:44:15.693Z,100994.66
2022-11-24T10:46:42.602Z,100996.69
2022-11-24T10:49:17.916Z,100996.63
2022-11-24T10:52:13.804Z,100997.38
2022-11-24T10:55:00.052Z,101001.59
2022-11-24T10:57:38.025Z,101006.69
2022-11-24T11:00:20.013Z,101018.56
2022-11-24T11:02:48.691Z,101005.34
2022-11-24T11:05:44.580Z,101016.09
2022-11-24T11:08:14.243Z,101015.38
2022-11-24T11:10:42.555Z,101019.63
2022-11-24T11:13:29.467Z,101015.88
2022-11-24T11:15:57.783Z,101024.34
2022-11-24T11:18:31.949Z,101025.41
2022-11-24T11:21:03.982Z,101020.81
2022-11-24T11:23:37.900Z,101023.34
2022-11-24T11:26:18.844Z,101027.56
2022-11-24T11:35:03.018Z,101026.81
2022-11-24T11:37:32.798Z,101020.56
2022-11-24T11:40:00.375Z,101022.38
2022-11-24T11:43:00.711Z,101012.81
2022-11-24T11:45:34.779Z,101016.13
2022-11-24T11:48:01.184Z,101012.69
2022-11-24T11:50:47.455Z,101022.16
2022-11-24T11:53:32.884Z,101019.72
2022-11-24T11:56:22.295Z,101016.34
2022-11-24T11:59:18.977Z,101021.69
2022-11-24T12:02:13.672Z,101023.50
2022-11-24T12:04:46.286Z,101021.94
2022-11-24T12:07:41.863Z,101022.66
2022-11-24T12:10:22.346Z,101031.41
2022-11-24T12:13:03.279Z,101014.13
2022-11-24T12:15:50.010Z,101027.13
2022-11-24T12:18:58.043Z,101018.41
2022-11-24T12:22:05.491Z,101022.59
2022-11-24T12:24:37.700Z,101018.31
2022-11-24T12:27:23.135Z,101018.25
2022-11-24T12:30:13.370Z,101021.78
2022-11-24T12:32:58.256Z,101023.44
2022-11-24T12:35:45.732Z,101023.28
2022-11-24T12:38:21.423Z,101028.44
2022-11-24T12:41:39.795Z,101024.16
2022-11-24T12:43:59.713Z,101029.34
2022-11-24T12:46:46.549Z,101034.56
2022-11-24T12:49:25.058Z,101031.97
2022-11-24T12:52:01.407Z,101042.28
2022-11-24T12:54:40.263Z,101048.34
2022-11-24T12:57:19.172Z,101054.44
2022-11-24T13:00:02.150Z,101048.34
2022-11-24T13:02:53.535Z,101049.19
2022-11-24T13:05:34.977Z,101042.91
2022-11-24T13:08:04.291Z,101040.31
2022-11-24T13:10:55.467Z,101036.88
2022-11-24T13:13:27.896Z,101038.72
2022-11-24T13:16:20.703Z,101039.59
2022-11-24T13:18:53.997Z,101049.25
2022-11-24T13:21:36.416Z,101049.25
2022-11-24T13:24:06.146Z,101049.41
2022-11-24T13:26:41.482Z,101039.81
2022-11-24T13:29:35.604Z,101041.59
2022-11-24T13:32:01.904Z,101038.28
2022-11-24T13:34:40.979Z,101035.63
2022-11-24T13:37:33.777Z,101037.38
2022-11-24T13:40:14.048Z,101040.94
2022-11-24T13:43:07.615Z,101034.00
2022-11-24T13:45:40.196Z,101032.44
2022-11-24T13:48:19.370Z,101041.97
2022-11-24T13:50:55.943Z,101046.28
2022-11-24T13:53:35.790Z,101035.91
2022-11-24T13:56:17.331Z,101044.56
2022-11-24T13:58:46.161Z,101045.50
2022-11-24T14:01:25.239Z,101041.97
2022-11-24T14:04:30.408Z,101044.66
2022-11-24T14:06:53.046Z,101036.13
2022-11-24T14:09:38.270Z,101032.75
2022-11-24T14:12:13.384Z,101033.69
2022-11-24T14:14:41.089Z,101032.97
2022-11-24T14:17:13.300Z,101036.41
2022-11-24T14:19:41.077Z,101036.47
2022-11-24T14:22:17.937Z,101031.38
2022-11-24T14:24:47.038Z,101035.84
2022-11-24T14:27:17.221Z,101033.31
2022-11-24T14:30:02.015Z,101028.13
2022-11-24T14:32:28.404Z,101026.66
2022-11-24T14:34:55.531Z,101013.00
2022-11-24T14:37:22.539Z,101020.09
2022-11-24T14:39:48.993Z,101022.84
2022-11-24T14:42:20.197Z,101035.00
2022-11-24T14:45:00.176Z,101041.19
2022-11-24T14:47:37.477Z,101035.22
2022-11-24T14:50:16.530Z,101035.31
2022-11-24T14:52:53.883Z,101029.50
2022-11-24T14:55:37.713Z,101031.38
2022-11-24T14:58:20.962Z,101034.25
2022-11-24T15:01:12.537Z,101030.19
2022-11-24T15:03:39.221Z,101035.63
2022-11-24T15:06:17.719Z,101034.84
2022-11-24T15:08:47.156Z,101034.06
2022-11-24T15:11:14.312Z,101039.31
2022-11-24T15:13:53.160Z,101039.47
2022-11-24T15:16:23.260Z,101037.97
2022-11-24T15:18:58.583Z,101036.41
2022-11-24T15:21:36.356Z,101045.09
2022-11-24T15:24:15.771Z,101047.00
2022-11-24T15:26:42.993Z,101050.56
2022-11-24T15:29:11.081Z,101046.31
2022-11-24T15:31:38.830Z,101053.41
2022-11-24T15:34:05.999Z,101053.47
2022-11-24T15:36:33.257Z,101045.75
2022-11-24T15:39:00.045Z,101050.28
2022-11-24T15:41:31.988Z,101046.91
2022-11-24T15:43:59.371Z,101041.81
2022-11-24T15:46:30.776Z,101053.13
2022-11-24T15:48:57.422Z,101048.06
2022-11-24T15:51:27.422Z,101044.69
2022-11-24T15:54:00.797Z,101042.22
2022-11-24T15:56:36.621Z,101046.63
2022-11-24T15:59:03.912Z,101050.25
2022-11-24T16:01:32.030Z,101046.88
2022-11-24T16:03:58.987Z,101046.03
2022-11-24T16:06:25.799Z,101036.72
2022-11-24T16:08:53.597Z,101047.09
2022-11-24T16:11:20.888Z,101043.72
2022-11-24T16:13:54.171Z,101048.13
2022-11-24T16:16:23.116Z,101045.63
2022-11-24T16:18:49.965Z,101049.16
2022-11-24T16:21:16.777Z,101048.47
2022-11-24T16:23:43.459Z,101044.25
2022-11-24T16:26:10.384Z,101044.25
2022-11-24T16:28:37.004Z,101048.63
2022-11-24T16:31:03.474Z,101046.16
2022-11-24T16:33:30.520Z,101049.66
2022-11-24T16:35:57.330Z,101051.38
2022-11-24T16:38:23.762Z,101048.09
2022-11-24T16:40:54.698Z,101055.00
2022-11-24T16:43:21.186Z,101057.59
2022-11-24T16:46:01.434Z,101061.06
2022-11-24T16:48:27.896Z,101053.38
2022-11-24T16:50:54.418Z,101056.06
2022-11-24T16:53:20.842Z,101052.69
2022-11-24T16:55:56.743Z,101050.91
2022-11-24T16:58:23.260Z,101045.00
2022-11-24T17:00:50.497Z,101049.41
2022-11-24T17:03:17.379Z,101052.91
2022-11-24T17:05:43.871Z,101056.44
2022-11-24T17:08:10.319Z,101053.97
2022-11-24T17:10:39.657Z,101050.56
2022-11-24T17:13:06.130Z,101053.19
2022-11-24T17:15:36.607Z,101058.38
2022-11-24T17:18:23.906Z,101054.03
2022-11-24T17:20:51.414Z,101045.44
2022-11-24T17:23:19.747Z,101051.59
2022-11-24T17:25:46.434Z,101050.69
2022-11-24T17:28:13.150Z,101046.41
2022-11-24T17:30:39.599Z,101053.28
2022-11-24T17:33:06.365Z,101054.16
2022-11-24T17:35:35.838Z,101049.81
2022-11-24T17:38:02.896Z,101056.81
2022-11-24T17:40:29.903Z,101050.78
2022-11-24T17:43:00.585Z,101050.78
2022-11-24T17:45:28.019Z,101053.50
2022-11-24T17:47:55.270Z,101053.63
2022-11-24T17:50:25.703Z,101048.50
2022-11-24T17:52:53.231Z,101055.50
2022-11-24T17:55:19.813Z,101057.22
2022-11-24T17:57:46.330Z,101053.75
2022-11-24T18:00:13.722Z,101052.94
2022-11-24T18:02:40.335Z,101048.59
2022-11-24T18:05:07.336Z,101049.44
2022-11-24T18:07:36.622Z,101048.56
2022-11-24T18:10:03.593Z,101051.16
2022-11-24T18:12:30.048Z,101054.63
2022-11-24T18:14:56.670Z,101058.13
2022-11-24T18:17:23.267Z,101046.00
2022-11-24T18:19:49.989Z,101050.31
2022-11-24T18:22:16.478Z,101054.63
2022-11-24T18:24:42.988Z,101055.50
2022-11-24T18:27:09.809Z,101051.16
2022-11-24T18:29:39.206Z,101057.16
2022-11-24T18:32:06.402Z,101055.41
2022-11-24T18:34:33.267Z,101047.63
2022-11-24T18:37:00.108Z,101034.75
2022-11-24T18:39:28.475Z,101036.44
2022-11-24T18:41:55.086Z,101031.28
2022-11-24T18:44:29.874Z,101034.81
2022-11-24T18:46:58.763Z,101033.09
2022-11-24T18:49:25.632Z,101038.38
2022-11-24T18:51:52.885Z,101038.41
2022-11-24T18:54:19.562Z,101037.63
2022-11-24T18:56:46.104Z,101041.13
2022-11-24T18:59:19.991Z,101042.84
2022-11-24T19:01:47.159Z,101041.19
2022-11-24T19:04:15.302Z,101042.97
2022-11-24T19:06:41.926Z,101038.69
2022-11-24T19:09:14.508Z,101025.81
2022-11-24T19:11:43.782Z,101025.91
2022-11-24T19:14:15.454Z,101020.78
2022-11-24T19:16:44.169Z,101019.97
2022-11-24T19:19:12.859Z,101021.72
2022-11-24T19:21:40.926Z,101026.91
2022-11-24T19:24:11.747Z,101021.81
2022-11-24T19:26:39.416Z,101013.25
2022-11-24T19:29:07.644Z,101010.66
2022-11-24T19:31:35.107Z,101010.72
2022-11-24T19:34:03.056Z,101008.13
2022-11-24T19:36:29.814Z,101003.81
2022-11-24T19:38:57.805Z,101002.19
2022-11-24T19:41:27.313Z,101000.50
2022-11-24T19:43:54.773Z,101003.16
2022-11-24T19:46:22.579Z,101009.22
2022-11-24T19:48:50.964Z,101011.81
2022-11-24T19:51:22.821Z,101018.75
2022-11-24T19:53:49.684Z,101011.88
2022-11-24T19:56:25.229Z,101005.84
2022-11-24T19:58:53.821Z,101024.94
2022-11-24T20:01:24.834Z,101017.13
2022-11-24T20:04:12.645Z,101013.69
2022-11-24T20:06:41.975Z,101015.53
2022-11-24T20:09:11.450Z,101019.88
2022-11-24T20:11:38.788Z,101020.75
2022-11-24T20:14:06.643Z,101013.88
2022-11-24T20:16:34.982Z,101015.59
2022-11-24T20:19:07.564Z,101010.41
2022-11-24T20:21:36.697Z,101009.63
2022-11-24T20:24:10.966Z,101010.53
2022-11-24T20:26:40.834Z,101017.50
2022-11-24T20:29:09.935Z,101012.38
2022-11-24T20:31:39.581Z,101010.75
2022-11-24T20:34:09.611Z,101006.41
2022-11-24T20:36:39.841Z,101005.53
2022-11-24T20:39:10.305Z,101008.09
2022-11-24T20:41:38.980Z,101008.94
2022-11-24T20:44:10.707Z,101012.31
2022-11-24T20:46:38.782Z,101009.69
2022-11-24T20:49:07.549Z,101005.34
2022-11-24T20:51:37.810Z,101002.72
2022-11-24T20:54:07.993Z,101001.78
2022-11-24T20:56:37.747Z,101005.22
2022-11-24T20:59:04.630Z,101006.94
2022-11-24T21:01:38.495Z,101006.88
2022-11-24T21:04:10.847Z,100997.34
2022-11-24T21:06:37.657Z,101005.97
2022-11-24T21:09:05.548Z,101009.34
2022-11-24T21:11:32.390Z,101001.53
2022-11-24T21:13:59.712Z,101000.56
2022-11-24T21:16:31.687Z,101015.16
2022-11-24T21:19:03.973Z,101007.38
2022-11-24T21:21:34.451Z,100998.72
2022-11-24T21:24:12.720Z,100990.03
2022-11-24T21:26:40.290Z,100999.59
2022-11-24T21:29:07.111Z,100989.22
2022-11-24T21:31:38.317Z,100994.38
2022-11-24T21:34:06.448Z,100998.72
2022-11-24T21:36:34.861Z,100993.53
2022-11-24T21:39:02.807Z,100990.03
2022-11-24T21:41:32.928Z,100990.84
2022-11-24T21:43:59.653Z,100990.03
2022-11-24T21:46:26.484Z,100976.22
2022-11-24T21:48:54.043Z,100983.22
2022-11-24T21:51:21.407Z,100983.22
2022-11-24T21:53:47.866Z,100986.69
2022-11-24T21:56:17.094Z,100978.88
2022-11-24T21:58:48.938Z,100976.28
2022-11-24T22:01:17.853Z,100973.63
2022-11-24T22:03:45.719Z,100973.69
2022-11-24T22:06:12.312Z,100962.44
2022-11-24T22:08:39.012Z,100962.34
2022-11-24T22:11:09.911Z,100964.06
2022-11-24T22:13:36.383Z,100956.28
2022-11-24T22:16:09.145Z,100962.25
2022-11-24T22:18:38.074Z,100959.66
2022-11-24T22:21:05.765Z,100957.97
2022-11-24T22:23:33.019Z,100951.06
2022-11-24T22:26:08.118Z,100958.84
2022-11-24T22:28:35.358Z,100958.03
2022-11-24T22:31:14.276Z,100959.75
2022-11-24T22:33:41.072Z,100956.50
2022-11-24T22:36:08.316Z,100956.50
2022-11-24T22:38:35.012Z,100964.28
2022-11-24T22:41:03.158Z,100965.06
2022-11-24T22:43:34.004Z,100958.94
2022-11-24T22:46:05.818Z,100951.09
2022-11-24T22:48:32.615Z,100948.56
2022-11-24T22:51:04.584Z,100952.06
2022-11-24T22:53:30.970Z,100952.97
2022-11-24T22:56:01.435Z,100965.03
2022-11-24T22:58:27.839Z,100959.84
2022-11-24T23:00:54.217Z,100962.34
2022-11-24T23:03:20.625Z,100957.97
2022-11-24T23:05:47.047Z,100965.81
2022-11-24T23:08:13.376Z,100971.84
2022-11-24T23:10:39.824Z,100963.22
2022-11-24T23:13:06.229Z,100980.56
2022-11-24T23:15:32.660Z,100964.16
2022-11-24T23:17:59.041Z,100960.78
2022-11-24T23:20:25.523Z,100955.72
2022-11-24T23:22:53.188Z,100951.44
2022-11-24T23:25:19.575Z,100952.34
2022-11-24T23:27:46.026Z,100959.28
2022-11-24T23:30:12.505Z,100953.19
2022-11-24T23:32:38.892Z,100955.78
2022-11-24T23:35:09.656Z,100961.88
2022-11-24T23:38:06.083Z,100950.69
2022-11-24T23:40:25.580Z,100948.09
2022-11-24T23:42:52.112Z,100941.16
2022-11-24T23:45:18.557Z,100943.66
2022-11-24T23:47:45.079Z,100941.97
2022-11-24T23:50:11.580Z,100947.97
2022-11-24T23:52:37.987Z,100944.53
2022-11-24T23:55:04.879Z,100948.00
2022-11-24T23:57:33.838Z,100945.50
